Time;durP1;ratioP1;P1;durP2;ratioP2;P2;SDS_P1;SDS_P2;PMS_P1;PMS_P2;Temp;Humidity;BMP_temperature;BMP_pressure;BME280_temperature;BME280_humidity;BME280_pressure;Samples;Min_cycle;Max_cycle;Signal;HPM_P1;HPM_P2
2023/10/12 00:00:37;;;;;;;5.22;4.30;;;;;;;23.07;57.74;99315.78;2084315;28;20053;-66
2023/10/12 00:01:40;;;;;;;5.00;3.95;;;;;;;23.08;57.80;99317.41;2081698;28;20064;-66
2023/10/12 00:02:58;;;;;;;6.75;4.45;;;;;;;23.10;57.93;99323.44;2081324;28;20168;-66
2023/10/12 00:04:06;;;;;;;8.77;4.88;;;;;;;23.12;57.79;99314.06;2081680;28;20049;-66
2023/10/12 00:05:10;;;;;;;6.32;4.65;;;;;;;23.11;57.77;99306.16;2083081;28;20052;-66
2023/10/12 00:06:13;;;;;;;6.97;4.72;;;;;;;23.13;57.66;99312.19;2079232;28;20049;-67
2023/10/12 00:07:15;;;;;;;6.85;4.50;;;;;;;23.15;57.57;99308.22;2081023;28;20132;-66
2023/10/12 00:08:30;;;;;;;6.25;3.97;;;;;;;23.15;57.82;99307.38;2081596;28;20063;-67
2023/10/12 00:09:31;;;;;;;8.70;4.25;;;;;;;23.12;57.75;99307.81;2078861;28;20415;-67
2023/10/12 00:10:40;;;;;;;6.70;4.85;;;;;;;23.09;57.90;99302.84;2080839;28;20103;-66
2023/10/12 00:11:46;;;;;;;5.75;4.70;;;;;;;23.05;58.00;99315.16;2082254;28;20076;-66
2023/10/12 00:12:50;;;;;;;5.38;4.18;;;;;;;23.03;58.05;99309.13;2079609;28;20049;-67
2023/10/12 00:13:52;;;;;;;7.38;4.38;;;;;;;23.03;57.79;99315.34;2080777;28;20108;-66
2023/10/12 00:14:55;;;;;;;7.70;4.53;;;;;;;23.04;57.90;99311.63;2079921;28;20048;-67
2023/10/12 00:15:56;;;;;;;7.28;4.45;;;;;;;23.08;57.80;99312.00;2080469;28;20061;-66
2023/10/12 00:16:57;;;;;;;5.93;4.38;;;;;;;23.13;57.74;99314.91;2080994;28;20045;-66
2023/10/12 00:18:04;;;;;;;5.53;4.32;;;;;;;23.13;57.59;99312.19;2080342;28;20099;-66
2023/10/12 00:19:11;;;;;;;6.13;4.57;;;;;;;23.13;57.62;99306.78;2084821;28;20053;-66
2023/10/12 00:20:21;;;;;;;5.72;3.97;;;;;;;23.11;57.73;99309.69;2083034;28;20140;-67
2023/10/12 00:21:25;;;;;;;6.13;4.47;;;;;;;23.12;57.61;99313.22;2081933;28;20079;-66
2023/10/12 00:22:28;;;;;;;7.25;4.88;;;;;;;23.12;57.77;99308.66;2080024;28;20045;-67
2023/10/12 00:23:33;;;;;;;7.20;4.05;;;;;;;23.13;57.61;99306.78;2081322;28;20077;-66
2023/10/12 00:24:35;;;;;;;7.18;4.90;;;;;;;23.09;57.90;99313.66;2078787;28;20481;-66
2023/10/12 00:25:41;;;;;;;6.10;4.63;;;;;;;23.10;57.69;99315.34;2078282;28;20547;-66
2023/10/12 00:26:43;;;;;;;5.75;4.40;;;;;;;23.08;57.82;99314.72;2079807;28;20060;-66
2023/10/12 00:27:44;;;;;;;6.35;4.88;;;;;;;23.07;57.83;99315.78;2077610;28;20053;-67
2023/10/12 00:28:50;;;;;;;9.02;5.13;;;;;;;23.05;57.85;99312.44;2078603;28;20132;-66
2023/10/12 00:29:53;;;;;;;7.00;4.57;;;;;;;23.03;57.87;99312.66;2079568;28;20539;-67
2023/10/12 00:30:57;;;;;;;6.43;4.57;;;;;;;23.00;57.98;99304.97;2078072;28;20041;-66
2023/10/12 00:31:59;;;;;;;4.88;3.70;;;;;;;23.02;57.83;99310.19;2081128;28;20081;-66
2023/10/12 00:33:01;;;;;;;7.30;4.70;;;;;;;23.01;57.98;99311.19;2078849;28;20081;-66
2023/10/12 00:34:03;;;;;;;6.88;5.20;;;;;;;23.02;57.86;99302.88;2079570;28;20037;-66
2023/10/12 00:35:07;;;;;;;8.43;4.20;;;;;;;22.99;58.16;99313.31;2078980;28;20052;-66
2023/10/12 00:36:19;;;;;;;7.07;4.45;;;;;;;22.98;57.97;99309.75;2076684;28;20053;-66
2023/10/12 00:37:21;;;;;;;5.45;4.13;;;;;;;22.96;58.17;99311.88;2079066;28;20041;-66
2023/10/12 00:38:24;;;;;;;6.43;4.75;;;;;;;22.97;58.12;99308.94;2077091;28;20044;-66
2023/10/12 00:39:40;;;;;;;8.57;5.07;;;;;;;22.95;58.18;99311.00;2078431;28;20462;-67
2023/10/12 00:40:48;;;;;;;7.13;4.53;;;;;;;22.88;58.44;99312.09;2080375;28;20053;-67
2023/10/12 00:41:52;;;;;;;6.00;4.63;;;;;;;22.86;58.54;99306.06;2078842;28;20467;-66
2023/10/12 00:42:53;;;;;;;10.00;5.47;;;;;;;22.84;58.55;99306.25;2082318;28;20087;-66
2023/10/12 00:44:09;;;;;;;7.18;4.05;;;;;;;22.84;58.49;99305.44;2078944;28;20044;-66
2023/10/12 00:45:19;;;;;;;6.70;4.22;;;;;;;22.82;58.76;99296.72;2076163;28;20042;-66
2023/10/12 00:46:40;;;;;;;7.90;4.22;;;;;;;22.77;58.84;99299.22;2078785;28;20052;-66
2023/10/12 00:47:45;;;;;;;5.65;4.47;;;;;;;22.69;59.03;99298.41;2079132;28;20055;-67
2023/10/12 00:48:49;;;;;;;7.00;4.80;;;;;;;22.73;58.91;99290.69;2079430;28;20049;-65
2023/10/12 00:49:51;;;;;;;6.40;4.35;;;;;;;22.75;58.85;99296.72;2080347;28;20099;-66
2023/10/12 00:50:54;;;;;;;7.15;5.53;;;;;;;22.77;58.74;99293.81;2080688;28;20495;-67
2023/10/12 00:52:08;;;;;;;5.47;4.43;;;;;;;22.81;58.42;99289.63;2080299;28;20051;-67
2023/10/12 00:53:14;;;;;;;6.60;4.28;;;;;;;22.79;58.60;99289.88;2078661;28;20075;-66
2023/10/12 00:54:25;;;;;;;5.50;3.92;;;;;;;22.78;58.61;99290.88;2077171;28;20507;-66
2023/10/12 00:55:35;;;;;;;7.78;4.40;;;;;;;22.76;58.69;99292.97;2083030;28;20110;-66
2023/10/12 00:56:37;;;;;;;9.45;4.68;;;;;;;22.74;58.75;99284.25;2078890;28;20049;-67
2023/10/12 00:57:37;;;;;;;7.55;4.65;;;;;;;22.74;58.86;99287.78;2083452;28;20049;-66
2023/10/12 00:58:41;;;;;;;8.65;4.18;;;;;;;22.73;58.81;99288.00;2083474;28;20668;-66
2023/10/12 00:59:43;;;;;;;6.20;4.60;;;;;;;22.77;58.67;99291.13;2076638;28;20063;-66
2023/10/12 01:00:51;;;;;;;5.30;4.60;;;;;;;22.72;58.88;99284.47;2075780;28;20057;-66
2023/10/12 01:01:53;;;;;;;8.05;5.35;;;;;;;22.72;58.77;99281.75;2078516;28;20053;-66
2023/10/12 01:03:10;;;;;;;6.07;4.45;;;;;;;22.72;58.91;99289.06;2077592;28;20049;-66
2023/10/12 01:04:16;;;;;;;5.93;4.15;;;;;;;22.70;58.77;99283.03;2076944;28;21310;-67
2023/10/12 01:05:22;;;;;;;7.18;4.72;;;;;;;22.74;58.59;99284.25;2078208;28;20055;-66
2023/10/12 01:06:30;;;;;;;5.97;4.28;;;;;;;22.76;58.57;99287.56;2077858;28;20048;-66
2023/10/12 01:07:37;;;;;;;7.03;5.22;;;;;;;22.70;58.78;99278.44;2078784;28;20102;-66
2023/10/12 01:08:42;;;;;;;5.28;4.30;;;;;;;22.63;59.01;99280.34;2078538;28;20061;-67
2023/10/12 01:09:43;;;;;;;7.40;4.70;;;;;;;22.61;59.11;99278.91;2078809;28;20103;-66
2023/10/12 01:10:45;;;;;;;11.35;5.13;;;;;;;22.60;59.06;99288.06;2077521;28;20286;-66
2023/10/12 01:11:58;;;;;;;8.13;4.63;;;;;;;22.62;58.94;99276.00;2077774;28;20053;-66
2023/10/12 01:13:01;;;;;;;5.97;4.68;;;;;;;22.63;59.10;99272.25;2076352;28;20057;-66
2023/10/12 01:14:09;;;;;;;7.63;4.82;;;;;;;22.61;58.98;99278.91;2079866;28;20461;-66
2023/10/12 01:15:12;;;;;;;7.82;4.30;;;;;;;22.57;59.23;99272.28;2076680;28;20041;-66
2023/10/12 01:16:22;;;;;;;6.25;4.70;;;;;;;22.60;59.13;99277.25;2079733;28;20053;-66
2023/10/12 01:17:24;;;;;;;6.72;3.95;;;;;;;22.57;59.21;99275.00;2081644;28;20163;-66
2023/10/12 01:18:28;;;;;;;5.55;4.18;;;;;;;22.57;59.18;99275.81;2074185;28;20400;-66
2023/10/12 01:19:33;;;;;;;9.63;4.93;;;;;;;22.58;59.17;99272.06;2076450;28;20057;-66
2023/10/12 01:20:39;;;;;;;5.55;4.53;;;;;;;22.57;59.09;99273.09;2079583;28;20076;-67
2023/10/12 01:21:43;;;;;;;6.25;4.18;;;;;;;22.51;59.35;99272.09;2079207;28;20088;-69
2023/10/12 01:22:47;;;;;;;7.13;4.28;;;;;;;22.51;59.50;99266.69;2081129;28;20045;-66
2023/10/12 01:23:50;;;;;;;11.90;4.78;;;;;;;22.55;59.13;99266.25;2068477;28;20060;-65
2023/10/12 01:24:58;;;;;;;9.55;5.47;;;;;;;22.54;59.12;99265.44;2076610;28;20062;-67
2023/10/12 01:26:09;;;;;;;6.25;4.78;;;;;;;22.51;59.35;99272.09;2080716;28;20052;-66
2023/10/12 01:27:14;;;;;;;6.85;5.00;;;;;;;22.50;59.11;99267.72;2079100;28;20140;-66
2023/10/12 01:28:16;;;;;;;5.07;4.30;;;;;;;22.51;59.28;99269.38;2074714;28;20053;-67
2023/10/12 01:29:20;;;;;;;4.80;4.30;;;;;;;22.48;59.38;99266.25;2080664;28;20144;-66
2023/10/12 01:30:22;;;;;;;7.15;4.72;;;;;;;22.50;59.28;99262.31;2079593;28;20132;-66
2023/10/12 01:31:27;;;;;;;6.22;4.60;;;;;;;22.54;59.21;99270.84;2077409;28;20443;-66
2023/10/12 01:32:28;;;;;;;7.20;5.07;;;;;;;22.50;59.38;99267.72;2083308;28;20140;-66
2023/10/12 01:33:30;;;;;;;8.85;4.65;;;;;;;22.49;59.49;99266.06;2080429;28;20057;-66
2023/10/12 01:34:36;;;;;;;9.05;5.07;;;;;;;22.50;59.36;99264.19;2080936;28;20073;-66
2023/10/12 01:35:40;;;;;;;8.35;4.82;;;;;;;22.47;59.48;99261.91;2082698;28;20056;-66
2023/10/12 01:36:43;;;;;;;9.10;5.20;;;;;;;22.46;59.43;99263.78;2074110;28;20103;-67
2023/10/12 01:37:48;;;;;;;7.63;4.90;;;;;;;22.43;59.67;99264.22;2078944;28;20049;-66
2023/10/12 01:38:51;;;;;;;7.45;5.13;;;;;;;22.37;59.84;99272.31;2077753;28;20049;-66
2023/10/12 01:39:57;;;;;;;8.75;4.95;;;;;;;22.38;59.76;99265.91;2076390;28;20126;-66
2023/10/12 01:40:58;;;;;;;5.30;4.40;;;;;;;22.39;59.72;99260.25;2078257;28;20048;-66
2023/10/12 01:42:03;;;;;;;10.57;5.03;;;;;;;22.42;59.77;99259.00;2076141;28;20650;-66
2023/10/12 01:43:12;;;;;;;6.68;4.40;;;;;;;22.42;59.48;99259.00;2077257;28;20110;-66
2023/10/12 01:44:13;;;;;;;6.43;4.68;;;;;;;22.41;59.68;99258.19;2076317;28;22774;-66
2023/10/12 01:45:18;;;;;;;6.35;4.88;;;;;;;22.46;59.41;99261.09;2076685;28;20073;-66
2023/10/12 01:46:22;;;;;;;5.53;4.53;;;;;;;22.50;59.40;99258.78;2074336;28;20072;-66
2023/10/12 01:47:24;;;;;;;5.85;4.15;;;;;;;22.49;59.34;99254.41;2083309;28;20044;-66
2023/10/12 01:48:33;;;;;;;6.00;4.63;;;;;;;22.44;59.50;99257.75;2078128;28;20044;-67
2023/10/12 01:49:36;;;;;;;7.80;4.97;;;;;;;22.43;59.58;99260.69;2077419;28;20057;-66
2023/10/12 01:50:39;;;;;;;6.10;4.78;;;;;;;22.43;59.46;99260.69;2079275;28;20068;-66
2023/10/12 01:51:45;;;;;;;5.13;4.28;;;;;;;22.38;59.88;99263.19;2081772;28;20052;-66
2023/10/12 01:52:47;;;;;;;6.78;4.10;;;;;;;22.37;59.73;99262.38;2081999;28;20060;-67
2023/10/12 01:53:49;;;;;;;6.53;4.50;;;;;;;22.37;59.75;99262.38;2080251;28;20057;-65
2023/10/12 01:54:51;;;;;;;9.30;5.20;;;;;;;22.40;59.63;99261.09;2080157;28;20873;-66
2023/10/12 01:55:54;;;;;;;7.10;4.82;;;;;;;22.35;59.95;99258.22;2076510;28;20063;-66
2023/10/12 01:56:56;;;;;;;5.28;4.78;;;;;;;22.39;59.73;99257.56;2082176;28;20049;-66
2023/10/12 01:57:56;;;;;;;6.55;4.68;;;;;;;22.46;59.54;99263.78;2078405;28;20048;-66
2023/10/12 01:58:58;;;;;;;8.68;5.22;;;;;;;22.39;59.55;99254.84;2081879;28;20053;-67
2023/10/12 02:00:00;;;;;;;10.57;5.70;;;;;;;22.42;59.57;99253.59;2077414;28;20353;-66
2023/10/12 02:01:05;;;;;;;4.40;4.00;;;;;;;22.44;59.53;99257.75;2072992;28;20057;-66
2023/10/12 02:02:13;;;;;;;10.48;5.32;;;;;;;22.40;59.72;99261.09;2073550;28;20053;-66
2023/10/12 02:03:15;;;;;;;8.95;4.70;;;;;;;22.41;59.78;99257.34;2079472;28;20057;-66
2023/10/12 02:04:17;;;;;;;6.13;5.38;;;;;;;22.38;59.77;99265.91;2077557;28;20053;-66
2023/10/12 02:05:24;;;;;;;10.23;5.82;;;;;;;22.31;60.00;99260.50;2080115;28;20052;-67
2023/10/12 02:06:28;;;;;;;11.32;5.50;;;;;;;22.26;60.18;99257.63;2080671;28;20080;-66
2023/10/12 02:07:30;;;;;;;8.00;5.07;;;;;;;22.29;60.04;99263.44;2078312;28;20546;-66
2023/10/12 02:08:32;;;;;;;6.60;5.70;;;;;;;22.29;60.13;99265.31;2080338;28;20106;-66
2023/10/12 02:09:35;;;;;;;8.50;5.00;;;;;;;22.27;60.21;99259.28;2075970;28;20064;-66
2023/10/12 02:10:43;;;;;;;7.82;5.82;;;;;;;22.27;60.40;99257.41;2076422;28;20190;-67
2023/10/12 02:11:53;;;;;;;11.50;4.63;;;;;;;22.22;60.32;99256.38;2075911;28;20574;-66
2023/10/12 02:12:55;;;;;;;9.60;4.65;;;;;;;22.25;60.23;99262.19;2081206;28;20538;-66
2023/10/12 02:14:01;;;;;;;8.15;5.28;;;;;;;22.24;60.47;99260.53;2076244;28;20049;-66
2023/10/12 02:15:04;;;;;;;6.65;5.30;;;;;;;22.24;60.29;99255.13;2078114;28;20053;-66
2023/10/12 02:16:07;;;;;;;6.68;5.25;;;;;;;22.23;60.27;99249.91;2077905;28;20049;-66
2023/10/12 02:17:08;;;;;;;9.10;4.80;;;;;;;22.23;60.37;99255.31;2076075;28;20060;-66
2023/10/12 02:18:15;;;;;;;6.40;5.45;;;;;;;22.21;60.36;99252.03;2078059;28;20056;-66
2023/10/12 02:19:29;;;;;;;6.13;5.13;;;;;;;22.19;60.42;99254.09;2079118;28;20111;-66
2023/10/12 02:20:35;;;;;;;6.78;4.32;;;;;;;22.13;60.72;99254.91;2081237;28;20059;-66
2023/10/12 02:21:37;;;;;;;7.50;4.72;;;;;;;22.17;60.74;99254.25;2077409;28;20072;-66
2023/10/12 02:22:41;;;;;;;5.85;4.82;;;;;;;22.19;60.55;99254.91;2077944;28;20925;-67
2023/10/12 02:23:56;;;;;;;7.18;4.85;;;;;;;22.12;60.69;99254.09;2077535;28;20057;-66
2023/10/12 02:25:17;;;;;;;10.90;4.45;;;;;;;22.09;60.92;99249.94;2079020;28;20053;-66
2023/10/12 02:26:29;;;;;;;10.38;5.43;;;;;;;22.18;60.52;99252.44;2079307;28;20053;-66
2023/10/12 02:27:32;;;;;;;7.13;5.22;;;;;;;22.28;60.21;99252.81;2078718;28;20163;-67
2023/10/12 02:28:37;;;;;;;6.32;5.13;;;;;;;22.35;59.83;99248.22;2079273;28;20050;-66
2023/10/12 02:29:40;;;;;;;6.78;5.05;;;;;;;22.44;59.91;99246.94;2076690;28;20092;-67
2023/10/12 02:30:43;;;;;;;6.80;4.72;;;;;;;22.50;59.48;99251.50;2078697;28;20060;-65
2023/10/12 02:31:54;;;;;;;5.97;4.50;;;;;;;22.58;59.29;99257.72;2076584;28;20052;-66
2023/10/12 02:33:01;;;;;;;4.68;4.20;;;;;;;22.62;59.01;99253.53;2074749;28;20092;-66
2023/10/12 02:34:02;;;;;;;7.88;4.38;;;;;;;22.66;59.07;99252.88;2078961;28;20054;-66
2023/10/12 02:35:11;;;;;;;4.80;4.20;;;;;;;22.71;58.79;99246.84;2078791;28;20049;-66
2023/10/12 02:36:13;;;;;;;5.93;4.32;;;;;;;22.72;58.76;99251.19;2077128;28;20056;-66
2023/10/12 02:37:19;;;;;;;7.80;4.75;;;;;;;22.72;58.75;99243.91;2077652;28;20065;-66
2023/10/12 02:38:27;;;;;;;6.95;4.75;;;;;;;22.71;58.70;99247.66;2078047;28;20057;-66
2023/10/12 02:39:28;;;;;;;5.50;4.32;;;;;;;22.68;58.76;99244.56;2077676;28;20056;-67
2023/10/12 02:40:33;;;;;;;7.97;4.13;;;;;;;22.66;58.88;99247.47;2080356;28;20081;-66
2023/10/12 02:41:35;;;;;;;7.97;5.05;;;;;;;22.67;58.84;99251.00;2077905;28;20080;-66
2023/10/12 02:42:40;;;;;;;8.45;5.97;;;;;;;22.67;58.77;99248.31;2075797;28;20059;-66
2023/10/12 02:43:43;;;;;;;5.15;4.45;;;;;;;22.62;59.04;99251.66;2082575;28;20069;-67
2023/10/12 02:45:03;;;;;;;12.57;5.20;;;;;;;22.56;59.16;99255.22;2075211;28;20102;-66
2023/10/12 02:46:06;;;;;;;6.38;4.95;;;;;;;22.50;59.35;99259.59;2076957;28;20057;-66
2023/10/12 02:47:12;;;;;;;6.25;4.55;;;;;;;22.50;59.31;99248.78;2075739;28;20424;-67
2023/10/12 02:48:23;;;;;;;6.20;5.57;;;;;;;22.55;59.33;99258.13;2076412;28;20482;-66
2023/10/12 02:49:24;;;;;;;7.18;4.60;;;;;;;22.59;59.24;99257.47;2072686;28;20050;-66
2023/10/12 02:50:29;;;;;;;5.78;4.53;;;;;;;22.65;59.11;99253.09;2079848;28;20516;-66
2023/10/12 02:51:31;;;;;;;5.82;3.92;;;;;;;22.73;58.69;99255.53;2076864;28;20061;-66
2023/10/12 02:52:33;;;;;;;5.72;4.95;;;;;;;22.78;58.55;99252.19;2076985;28;20071;-67
2023/10/12 02:53:39;;;;;;;5.22;4.13;;;;;;;22.81;58.25;99258.00;2080657;28;20065;-66
2023/10/12 02:54:49;;;;;;;4.45;4.05;;;;;;;22.81;58.64;99247.19;2079246;28;20067;-66
2023/10/12 02:55:51;;;;;;;8.73;4.68;;;;;;;22.80;58.47;99258.22;2079862;28;20045;-67
2023/10/12 02:56:56;;;;;;;13.50;4.82;;;;;;;22.75;58.59;99254.28;2081916;28;20098;-66
2023/10/12 02:57:59;;;;;;;6.28;4.97;;;;;;;22.70;58.71;99251.41;2081776;28;20060;-66
2023/10/12 02:59:08;;;;;;;7.65;5.30;;;;;;;22.66;58.84;99254.75;2079608;28;20547;-66
2023/10/12 03:00:13;;;;;;;6.75;4.82;;;;;;;22.55;59.26;99258.13;2076782;28;20052;-65
2023/10/12 03:01:19;;;;;;;7.80;5.05;;;;;;;22.51;59.50;99249.59;2078740;28;20080;-66
2023/10/12 03:02:20;;;;;;;12.70;5.55;;;;;;;22.51;59.34;99253.16;2076000;28;20080;-66
2023/10/12 03:03:23;;;;;;;7.03;5.07;;;;;;;22.55;59.08;99252.72;2080672;28;20550;-67
2023/10/12 03:04:25;;;;;;;7.38;5.13;;;;;;;22.56;59.24;99251.69;2081071;28;20472;-66
2023/10/12 03:05:33;;;;;;;5.13;4.25;;;;;;;22.57;59.19;99245.25;2081035;28;20643;-66
2023/10/12 03:06:54;;;;;;;7.10;5.03;;;;;;;22.60;58.90;99253.75;2079850;28;20456;-66
2023/10/12 03:07:56;;;;;;;5.78;4.53;;;;;;;22.58;59.04;99247.72;2081407;28;20045;-66
2023/10/12 03:09:14;;;;;;;7.50;4.95;;;;;;;22.58;59.08;99252.31;2080031;28;20044;-66
2023/10/12 03:10:24;;;;;;;9.07;5.30;;;;;;;22.54;59.33;99249.22;2082945;28;20122;-66
2023/10/12 03:11:26;;;;;;;8.73;5.20;;;;;;;22.57;59.24;99247.94;2083297;28;20103;-67
2023/10/12 03:12:34;;;;;;;7.45;4.93;;;;;;;22.63;58.84;99260.59;2083381;28;20123;-65
2023/10/12 03:13:36;;;;;;;6.03;4.90;;;;;;;22.65;58.75;99253.09;2081972;28;20052;-66
2023/10/12 03:14:40;;;;;;;5.80;4.70;;;;;;;22.67;58.75;99249.13;2082044;28;20128;-66
2023/10/12 03:15:42;;;;;;;5.80;4.95;;;;;;;22.67;58.84;99251.81;2081202;28;22214;-66
2023/10/12 03:16:46;;;;;;;7.78;5.90;;;;;;;22.65;59.03;99253.09;2082547;28;20059;-66
2023/10/12 03:17:54;;;;;;;7.72;4.63;;;;;;;22.64;58.95;99254.13;2081735;28;20042;-67
2023/10/12 03:19:00;;;;;;;6.30;4.85;;;;;;;22.62;59.05;99250.81;2082069;28;20053;-67
2023/10/12 03:20:17;;;;;;;6.07;4.88;;;;;;;22.56;59.19;99254.38;2083342;28;20487;-66
2023/10/12 03:21:18;;;;;;;5.72;4.70;;;;;;;22.53;59.32;99253.75;2082129;28;20052;-66
2023/10/12 03:22:25;;;;;;;7.50;4.82;;;;;;;22.51;59.34;99249.59;2084343;28;20140;-67
2023/10/12 03:23:29;;;;;;;8.25;5.20;;;;;;;22.50;59.40;99246.09;2081405;28;20057;-66
2023/10/12 03:24:38;;;;;;;9.13;4.90;;;;;;;22.55;59.15;99250.84;2081414;28;20045;-66
2023/10/12 03:25:43;;;;;;;6.75;5.20;;;;;;;22.60;58.94;99247.53;2080644;28;20266;-66
2023/10/12 03:26:49;;;;;;;6.53;4.00;;;;;;;22.65;58.70;99247.69;2081608;28;20045;-66
2023/10/12 03:27:53;;;;;;;5.95;4.70;;;;;;;22.67;58.84;99246.41;2081308;28;20123;-65
2023/10/12 03:29:04;;;;;;;8.10;5.00;;;;;;;22.64;58.80;99243.31;2081226;28;20053;-67
2023/10/12 03:30:09;;;;;;;8.45;4.53;;;;;;;22.61;58.87;99246.47;2081442;28;20458;-66
2023/10/12 03:31:21;;;;;;;7.75;5.18;;;;;;;22.60;59.03;99248.34;2081405;28;20086;-67
2023/10/12 03:32:25;;;;;;;5.40;4.25;;;;;;;22.58;59.12;99246.91;2082493;28;20782;-67
2023/10/12 03:33:34;;;;;;;6.65;4.47;;;;;;;22.55;59.31;99240.03;2080412;28;20046;-66
2023/10/12 03:34:53;;;;;;;6.40;4.97;;;;;;;22.53;59.09;99251.06;2080946;28;20431;-66
2023/10/12 03:35:57;;;;;;;6.00;4.57;;;;;;;22.52;59.35;99249.41;2081522;28;21195;-66
2023/10/12 03:37:01;;;;;;;8.65;6.00;;;;;;;22.56;59.24;99249.78;2082814;28;20060;-67
2023/10/12 03:38:12;;;;;;;7.88;4.75;;;;;;;22.60;59.23;99247.53;2081712;28;20068;-66
2023/10/12 03:39:25;;;;;;;8.75;5.13;;;;;;;22.58;59.36;99253.13;2081683;28;20782;-66
2023/10/12 03:41:55;;;;;;;8.40;5.43;;;;;;;22.48;59.42;99244.63;2080004;28;21147;-66
2023/10/12 03:42:56;;;;;;;7.13;5.18;;;;;;;22.49;59.35;99249.00;2082680;28;20586;-66
2023/10/12 03:44:02;;;;;;;6.60;4.88;;;;;;;22.47;59.58;99245.69;2081989;28;20121;-67
2023/10/12 03:45:24;;;;;;;6.35;4.40;;;;;;;22.47;59.45;99251.91;2080839;28;20049;-66
2023/10/12 03:46:27;;;;;;;8.02;5.32;;;;;;;22.44;59.60;99246.13;2081178;28;20087;-66
2023/10/12 03:47:32;;;;;;;7.53;5.50;;;;;;;22.47;59.62;99248.38;2080800;28;20081;-66
2023/10/12 03:48:50;;;;;;;7.15;4.70;;;;;;;22.49;59.35;99246.31;2083307;28;20099;-66
2023/10/12 03:50:00;;;;;;;7.07;4.53;;;;;;;22.46;59.50;99244.03;2082004;28;20045;-67
2023/10/12 03:51:12;;;;;;;7.55;4.40;;;;;;;22.48;59.56;99248.19;2079193;28;20076;-67
2023/10/12 03:52:15;;;;;;;8.20;4.30;;;;;;;22.49;59.40;99247.13;2078608;28;20049;-67
2023/10/12 03:53:20;;;;;;;5.45;4.50;;;;;;;22.52;59.34;99249.41;2080294;28;20033;-66
2023/10/12 03:54:28;;;;;;;7.78;4.93;;;;;;;22.50;59.40;99246.09;2081895;28;20053;-66
2023/10/12 03:55:32;;;;;;;12.27;4.75;;;;;;;22.50;59.35;99243.38;2076801;28;20459;-66
2023/10/12 03:56:39;;;;;;;6.05;5.03;;;;;;;22.51;59.40;99242.34;2080428;28;20076;-66
2023/10/12 03:57:45;;;;;;;5.68;4.93;;;;;;;22.55;59.18;99248.16;2082337;28;21938;-66
2023/10/12 03:58:58;;;;;;;8.43;4.43;;;;;;;22.58;58.85;99246.91;2081397;28;20053;-65
2023/10/12 04:01:24;;;;;;;8.18;4.60;;;;;;;22.56;59.43;99248.97;2079310;28;21404;-66
2023/10/12 04:02:26;;;;;;;9.30;5.22;;;;;;;22.57;58.93;99248.78;2077218;28;20079;-66
2023/10/12 04:03:37;;;;;;;7.47;5.05;;;;;;;22.61;58.95;99250.00;2076937;28;20037;-66
2023/10/12 04:04:45;;;;;;;4.50;3.90;;;;;;;22.62;58.93;99248.97;2081573;28;20521;-66
2023/10/12 04:05:51;;;;;;;6.38;4.25;;;;;;;22.64;58.91;99254.13;2082663;28;20103;-66
2023/10/12 04:08:37;;;;;;;6.55;4.00;;;;;;;22.67;58.50;99251.81;2068115;28;20044;-66
2023/10/12 04:09:42;;;;;;;5.18;4.68;;;;;;;22.64;58.74;99248.72;2079018;28;20054;-66
2023/10/12 04:12:16;;;;;;;8.90;4.82;;;;;;;22.66;58.76;99257.47;2077108;28;20061;-66
2023/10/12 04:14:48;;;;;;;5.75;4.57;;;;;;;22.62;58.76;99254.38;2075007;28;20072;-66
2023/10/12 04:17:09;;;;;;;4.93;4.38;;;;;;;22.61;58.83;99257.28;2079257;28;20086;-66
2023/10/12 04:18:14;;;;;;;6.88;4.75;;;;;;;22.57;58.98;99248.78;2081844;28;20044;-66
2023/10/12 04:19:29;;;;;;;6.50;4.47;;;;;;;22.57;58.98;99256.06;2076608;28;20115;-66
2023/10/12 04:20:33;;;;;;;6.97;5.07;;;;;;;22.55;59.10;99253.56;2080177;28;20463;-66
2023/10/12 04:21:40;;;;;;;5.00;4.38;;;;;;;22.52;59.30;99249.41;2079290;28;20056;-66
2023/10/12 04:23:04;;;;;;;4.88;4.20;;;;;;;22.49;59.34;99249.00;2079330;28;20408;-67
2023/10/12 04:25:32;;;;;;;5.80;4.78;;;;;;;22.43;59.50;99250.69;2079229;28;20033;-66
2023/10/12 04:26:38;;;;;;;6.32;4.60;;;;;;;22.49;59.26;99249.00;2076680;28;20534;-67
2023/10/12 04:27:50;;;;;;;8.38;5.45;;;;;;;22.49;59.28;99252.53;2079682;28;20106;-66
2023/10/12 04:28:52;;;;;;;7.95;4.90;;;;;;;22.50;59.18;99250.66;2077085;28;20053;-66
2023/10/12 04:29:59;;;;;;;9.88;5.78;;;;;;;22.56;59.00;99248.97;2080812;28;20045;-67
2023/10/12 04:31:20;;;;;;;5.47;4.00;;;;;;;22.57;59.03;99247.94;2077391;28;20092;-67
2023/10/12 04:32:38;;;;;;;9.63;5.13;;;;;;;22.59;58.98;99249.38;2079778;28;20091;-67
2023/10/12 04:33:43;;;;;;;7.15;4.53;;;;;;;22.62;59.11;99242.69;2080088;28;20084;-67
2023/10/12 04:34:50;;;;;;;10.23;5.03;;;;;;;22.65;58.91;99247.69;2077786;28;20041;-67
2023/10/12 04:37:12;;;;;;;7.22;5.50;;;;;;;22.63;58.86;99244.38;2079224;28;20041;-67
2023/10/12 04:38:23;;;;;;;5.13;4.22;;;;;;;22.61;58.81;99243.75;2081473;28;20515;-67
2023/10/12 04:39:26;;;;;;;11.45;6.03;;;;;;;22.63;58.93;99244.38;2076529;28;20076;-67
2023/10/12 04:40:36;;;;;;;7.15;4.65;;;;;;;22.67;58.72;99246.41;2080388;28;20048;-65
2023/10/12 04:41:42;;;;;;;5.35;4.53;;;;;;;22.72;58.69;99243.09;2076707;28;20147;-67
2023/10/12 04:42:45;;;;;;;5.68;4.63;;;;;;;22.72;58.60;99252.00;2081863;28;20057;-67
2023/10/12 04:43:52;;;;;;;4.65;4.20;;;;;;;22.72;58.56;99249.31;2081841;28;20547;-67
2023/10/12 04:45:03;;;;;;;5.43;4.47;;;;;;;22.77;58.27;99254.09;2075981;28;20713;-67
2023/10/12 04:46:26;;;;;;;6.13;4.30;;;;;;;22.77;58.41;99245.97;2077967;28;20516;-67
2023/10/12 04:47:30;;;;;;;6.03;4.38;;;;;;;22.78;58.35;99250.31;2083143;28;20049;-67
2023/10/12 04:48:31;;;;;;;6.85;5.05;;;;;;;22.81;58.27;99252.59;2077661;28;20583;-67
2023/10/12 04:50:59;;;;;;;5.72;4.43;;;;;;;22.87;57.97;99242.78;2078380;28;20065;-66
2023/10/12 04:52:15;;;;;;;5.45;3.88;;;;;;;22.89;57.84;99238.81;2078608;28;20053;-67
2023/10/12 04:53:18;;;;;;;4.82;3.95;;;;;;;22.90;57.89;99245.06;2075956;28;20848;-67
2023/10/12 04:54:24;;;;;;;6.22;4.35;;;;;;;22.92;57.85;99243.78;2078481;28;20053;-67
2023/10/12 04:55:28;;;;;;;5.32;4.45;;;;;;;22.93;57.71;99241.94;2078678;28;20069;-67
2023/10/12 04:56:36;;;;;;;6.63;3.90;;;;;;;22.95;57.66;99246.09;2082351;28;20131;-66
2023/10/12 04:57:39;;;;;;;6.65;4.15;;;;;;;22.98;57.68;99242.13;2076373;28;20054;-67
2023/10/12 04:58:56;;;;;;;4.55;3.38;;;;;;;22.97;57.54;99241.31;2082851;28;20155;-67
2023/10/12 05:00:10;;;;;;;4.38;3.95;;;;;;;23.00;57.33;99239.22;2081128;28;20051;-67
2023/10/12 05:01:19;;;;;;;5.65;3.95;;;;;;;22.99;57.43;99237.56;2079263;28;20037;-67
2023/10/12 05:02:28;;;;;;;7.55;4.20;;;;;;;23.00;57.55;99241.91;2079198;28;20116;-67
2023/10/12 05:03:36;;;;;;;6.57;3.85;;;;;;;23.00;57.55;99239.22;2083375;28;20044;-66
2023/10/12 05:04:49;;;;;;;4.57;3.60;;;;;;;23.02;57.44;99245.25;2075974;28;20519;-67
2023/10/12 05:06:04;;;;;;;4.95;4.13;;;;;;;23.01;57.30;99241.69;2079765;28;20123;-67
2023/10/12 05:07:27;;;;;;;6.43;5.00;;;;;;;23.03;57.32;99241.47;2077958;28;20084;-67
2023/10/12 05:08:31;;;;;;;5.20;4.55;;;;;;;23.01;57.48;99240.84;2078018;28;20049;-67
2023/10/12 05:09:32;;;;;;;7.25;4.40;;;;;;;23.03;57.48;99239.59;2080497;28;20719;-67
2023/10/12 05:10:46;;;;;;;6.95;3.90;;;;;;;23.06;57.28;99249.16;2075674;28;20053;-67
2023/10/12 05:11:48;;;;;;;6.65;4.15;;;;;;;23.08;56.95;99255.19;2077713;28;22066;-67
2023/10/12 05:12:50;;;;;;;7.43;5.03;;;;;;;23.09;57.17;99246.00;2079936;28;20056;-67
2023/10/12 05:13:52;;;;;;;12.02;4.55;;;;;;;23.10;57.11;99245.81;2079336;28;20068;-67
2023/10/12 05:14:55;;;;;;;6.38;4.55;;;;;;;23.11;57.00;99249.34;2077604;28;20056;-67
2023/10/12 05:15:56;;;;;;;4.50;4.03;;;;;;;23.12;57.03;99242.88;2077976;28;24036;-67
2023/10/12 05:16:57;;;;;;;4.50;4.05;;;;;;;23.12;56.95;99246.44;2081892;28;20052;-67
2023/10/12 05:17:58;;;;;;;5.30;4.00;;;;;;;23.13;56.87;99249.97;2082314;28;20045;-67
2023/10/12 05:19:00;;;;;;;6.57;5.05;;;;;;;23.08;57.10;99247.06;2081305;28;20124;-67
2023/10/12 05:20:01;;;;;;;6.25;5.35;;;;;;;23.03;57.13;99245.00;2078534;28;20096;-67
2023/10/12 05:21:08;;;;;;;6.97;4.55;;;;;;;23.05;57.15;99247.50;2080651;28;20045;-67
2023/10/12 05:22:10;;;;;;;5.57;4.40;;;;;;;23.02;57.15;99247.94;2078231;28;20037;-67
2023/10/12 05:23:12;;;;;;;8.48;4.95;;;;;;;23.05;57.27;99251.03;2076396;28;20048;-67
2023/10/12 05:24:13;;;;;;;5.60;4.53;;;;;;;23.04;57.31;99243.13;2081103;28;20048;-67